sensor_id;sensor_type;location;lat;lon;timestamp;pressure;altitude;pressure_sealevel;temperature;humidity
49841;BME280;35738;49.890;5.930;2024-02-28T00:00:42;95998.06;;;-0.72;100.00
49841;BME280;35738;49.890;5.930;2024-02-28T00:03:09;96002.44;;;-0.66;100.00
49841;BME280;35738;49.890;5.930;2024-02-28T00:05:35;96012.47;;;-0.31;100.00
49841;BME280;35738;49.890;5.930;2024-02-28T00:08:02;96011.56;;;-0.12;100.00
49841;BME280;35738;49.890;5.930;2024-02-28T00:10:29;96006.31;;;-0.37;100.00
49841;BME280;35738;49.890;5.930;2024-02-28T00:12:59;95998.03;;;-0.14;100.00
49841;BME280;35738;49.890;5.930;2024-02-28T00:15:26;96000.34;;;-0.06;100.00
49841;BME280;35738;49.890;5.930;2024-02-28T00:17:54;95999.25;;;-0.23;100.00
49841;BME280;35738;49.890;5.930;2024-02-28T00:20:20;95999.09;;;-0.28;100.00
49841;BME280;35738;49.890;5.930;2024-02-28T00:22:47;96006.69;;;-0.33;100.00
49841;BME280;35738;49.890;5.930;2024-02-28T00:25:14;96001.53;;;-0.40;100.00
49841;BME280;35738;49.890;5.930;2024-02-28T00:27:42;96002.09;;;-0.31;100.00
49841;BME280;35738;49.890;5.930;2024-02-28T00:30:09;96002.63;;;-0.16;100.00
49841;BME280;35738;49.890;5.930;2024-02-28T00:32:35;96004.53;;;-0.05;100.00
49841;BME280;35738;49.890;5.930;2024-02-28T00:35:02;96009.81;;;-0.18;100.00
49841;BME280;35738;49.890;5.930;2024-02-28T00:37:30;96009.03;;;-0.25;100.00
49841;BME280;35738;49.890;5.930;2024-02-28T00:39:56;96004.44;;;-0.16;100.00
49841;BME280;35738;49.890;5.930;2024-02-28T00:42:23;96004.59;;;-0.11;100.00
49841;BME280;35738;49.890;5.930;2024-02-28T00:44:50;96012.50;;;0.01;100.00
49841;BME280;35738;49.890;5.930;2024-02-28T00:47:17;96015.63;;;0.09;100.00
49841;BME280;35738;49.890;5.930;2024-02-28T00:49:44;96009.19;;;0.18;100.00
49841;BME280;35738;49.890;5.930;2024-02-28T00:52:10;96019.16;;;0.21;100.00
49841;BME280;35738;49.890;5.930;2024-02-28T00:54:38;96019.97;;;0.22;100.00
49841;BME280;35738;49.890;5.930;2024-02-28T00:57:05;96022.59;;;0.15;100.00
49841;BME280;35738;49.890;5.930;2024-02-28T00:59:32;96027.97;;;0.14;100.00
49841;BME280;35738;49.890;5.930;2024-02-28T01:01:58;96025.22;;;0.09;100.00
49841;BME280;35738;49.890;5.930;2024-02-28T01:04:24;96031.66;;;-0.01;100.00
49841;BME280;35738;49.890;5.930;2024-02-28T01:06:51;96026.72;;;-0.09;100.00
49841;BME280;35738;49.890;5.930;2024-02-28T01:09:18;96031.31;;;-0.11;100.00
49841;BME280;35738;49.890;5.930;2024-02-28T01:11:45;96024.38;;;-0.23;100.00
49841;BME280;35738;49.890;5.930;2024-02-28T01:14:11;96028.94;;;-0.19;100.00
49841;BME280;35738;49.890;5.930;2024-02-28T01:16:38;96034.13;;;-0.19;100.00
49841;BME280;35738;49.890;5.930;2024-02-28T01:19:05;96032.25;;;-0.43;100.00
49841;BME280;35738;49.890;5.930;2024-02-28T01:21:31;96036.44;;;-0.36;100.00
49841;BME280;35738;49.890;5.930;2024-02-28T01:23:58;96037.41;;;-0.30;100.00
49841;BME280;35738;49.890;5.930;2024-02-28T01:26:25;96036.22;;;-0.34;100.00
49841;BME280;35738;49.890;5.930;2024-02-28T01:28:51;96042.81;;;-0.38;100.00
49841;BME280;35738;49.890;5.930;2024-02-28T01:31:18;96044.59;;;-0.32;100.00
49841;BME280;35738;49.890;5.930;2024-02-28T01:33:45;96043.75;;;-0.26;100.00
49841;BME280;35738;49.890;5.930;2024-02-28T01:36:12;96048.34;;;-0.28;100.00
49841;BME280;35738;49.890;5.930;2024-02-28T01:38:38;96039.81;;;-0.35;100.00
49841;BME280;35738;49.890;5.930;2024-02-28T01:41:05;96032.25;;;-0.43;100.00
49841;BME280;35738;49.890;5.930;2024-02-28T01:43:32;96043.06;;;-0.53;100.00
49841;BME280;35738;49.890;5.930;2024-02-28T01:46:01;96037.88;;;-0.59;100.00
49841;BME280;35738;49.890;5.930;2024-02-28T01:48:29;96039.91;;;-0.62;100.00
49841;BME280;35738;49.890;5.930;2024-02-28T01:50:56;96040.47;;;-0.59;100.00
49841;BME280;35738;49.890;5.930;2024-02-28T01:53:23;96036.31;;;-0.61;100.00
49841;BME280;35738;49.890;5.930;2024-02-28T01:55:50;96042.66;;;-0.56;100.00
49841;BME280;35738;49.890;5.930;2024-02-28T01:58:18;96037.47;;;-0.56;100.00
49841;BME280;35738;49.890;5.930;2024-02-28T02:00:46;96035.56;;;-0.81;100.00
49841;BME280;35738;49.890;5.930;2024-02-28T02:03:13;96041.13;;;-0.77;100.00
49841;BME280;35738;49.890;5.930;2024-02-28T02:05:41;96041.91;;;-0.64;100.00
49841;BME280;35738;49.890;5.930;2024-02-28T02:08:09;96042.06;;;-0.58;100.00
49841;BME280;35738;49.890;5.930;2024-02-28T02:10:36;96045.47;;;-0.58;100.00
49841;BME280;35738;49.890;5.930;2024-02-28T02:13:06;96038.91;;;-0.61;100.00
49841;BME280;35738;49.890;5.930;2024-02-28T02:15:33;96033.34;;;-0.71;100.00
49841;BME280;35738;49.890;5.930;2024-02-28T02:17:59;96032.84;;;-1.06;100.00
49841;BME280;35738;49.890;5.930;2024-02-28T02:20:29;96040.41;;;-1.31;100.00
49841;BME280;35738;49.890;5.930;2024-02-28T02:22:58;96042.41;;;-1.19;100.00
49841;BME280;35738;49.890;5.930;2024-02-28T02:25:24;96037.59;;;-0.96;100.00
49841;BME280;35738;49.890;5.930;2024-02-28T02:27:51;96029.41;;;-0.93;100.00
49841;BME280;35738;49.890;5.930;2024-02-28T02:30:18;96037.56;;;-0.83;100.00
49841;BME280;35738;49.890;5.930;2024-02-28T02:32:44;96029.97;;;-0.78;100.00
49841;BME280;35738;49.890;5.930;2024-02-28T02:35:11;96026.63;;;-0.92;100.00
49841;BME280;35738;49.890;5.930;2024-02-28T02:37:37;96025.06;;;-1.12;100.00
49841;BME280;35738;49.890;5.930;2024-02-28T02:40:04;96015.69;;;-1.13;100.00
49841;BME280;35738;49.890;5.930;2024-02-28T02:42:31;96032.25;;;-1.08;100.00
49841;BME280;35738;49.890;5.930;2024-02-28T02:44:58;96029.03;;;-0.90;100.00
49841;BME280;35738;49.890;5.930;2024-02-28T02:47:24;96028.88;;;-1.22;100.00
49841;BME280;35738;49.890;5.930;2024-02-28T02:49:51;96031.84;;;-1.38;100.00
49841;BME280;35738;49.890;5.930;2024-02-28T02:52:17;96032.03;;;-1.06;100.00
49841;BME280;35738;49.890;5.930;2024-02-28T02:54:44;96040.19;;;-0.96;100.00
49841;BME280;35738;49.890;5.930;2024-02-28T02:57:10;96030.41;;;-0.94;100.00
49841;BME280;35738;49.890;5.930;2024-02-28T02:59:37;96034.81;;;-1.01;100.00
49841;BME280;35738;49.890;5.930;2024-02-28T03:02:04;96034.78;;;-0.88;100.00
49841;BME280;35738;49.890;5.930;2024-02-28T03:04:30;96037.56;;;-0.83;100.00
49841;BME280;35738;49.890;5.930;2024-02-28T03:06:57;96037.94;;;-0.73;100.00
49841;BME280;35738;49.890;5.930;2024-02-28T03:09:24;96034.34;;;-0.72;100.00
49841;BME280;35738;49.890;5.930;2024-02-28T03:11:51;96045.91;;;-0.68;100.00
49841;BME280;35738;49.890;5.930;2024-02-28T03:14:17;96048.31;;;-0.73;100.00
49841;BME280;35738;49.890;5.930;2024-02-28T03:16:45;96049.09;;;-0.79;100.00
49841;BME280;35738;49.890;5.930;2024-02-28T03:19:12;96040.75;;;-0.81;100.00
49841;BME280;35738;49.890;5.930;2024-02-28T03:21:38;96039.16;;;-0.82;100.00
49841;BME280;35738;49.890;5.930;2024-02-28T03:24:05;96049.53;;;-0.82;100.00
49841;BME280;35738;49.890;5.930;2024-02-28T03:26:32;96046.53;;;-0.79;100.00
49841;BME280;35738;49.890;5.930;2024-02-28T03:28:59;96039.16;;;-0.82;100.00
49841;BME280;35738;49.890;5.930;2024-02-28T03:31:26;96043.13;;;-0.79;100.00
49841;BME280;35738;49.890;5.930;2024-02-28T03:33:53;96044.94;;;-0.80;100.00
49841;BME280;35738;49.890;5.930;2024-02-28T03:36:20;96048.78;;;-1.09;100.00
49841;BME280;35738;49.890;5.930;2024-02-28T03:38:46;96053.16;;;-1.36;100.00
49841;BME280;35738;49.890;5.930;2024-02-28T03:41:13;96047.56;;;-1.72;100.00
49841;BME280;35738;49.890;5.930;2024-02-28T03:43:40;96058.63;;;-2.05;100.00
49841;BME280;35738;49.890;5.930;2024-02-28T03:46:07;96055.41;;;-2.20;100.00
49841;BME280;35738;49.890;5.930;2024-02-28T03:48:33;96054.19;;;-2.24;100.00
49841;BME280;35738;49.890;5.930;2024-02-28T03:51:00;96055.41;;;-2.20;100.00
49841;BME280;35738;49.890;5.930;2024-02-28T03:53:26;96059.84;;;-2.01;100.00
49841;BME280;35738;49.890;5.930;2024-02-28T03:55:53;96064.47;;;-1.76;100.00
49841;BME280;35738;49.890;5.930;2024-02-28T03:58:20;96068.25;;;-1.86;100.00
49841;BME280;35738;49.890;5.930;2024-02-28T04:00:46;96078.16;;;-2.02;100.00
49841;BME280;35738;49.890;5.930;2024-02-28T04:03:14;96081.34;;;-1.94;100.00
49841;BME280;35738;49.890;5.930;2024-02-28T04:05:41;96073.00;;;-1.89;100.00
49841;BME280;35738;49.890;5.930;2024-02-28T04:08:08;96068.81;;;-1.97;100.00
49841;BME280;35738;49.890;5.930;2024-02-28T04:10:35;96073.81;;;-1.75;100.00
49841;BME280;35738;49.890;5.930;2024-02-28T04:13:01;96077.25;;;-1.55;100.00
49841;BME280;35738;49.890;5.930;2024-02-28T04:15:30;96067.69;;;-1.35;100.00
49841;BME280;35738;49.890;5.930;2024-02-28T04:17:57;96069.28;;;-1.34;100.00
49841;BME280;35738;49.890;5.930;2024-02-28T04:20:23;96071.88;;;-1.40;100.00
49841;BME280;35738;49.890;5.930;2024-02-28T04:22:50;96077.44;;;-1.63;100.00
49841;BME280;35738;49.890;5.930;2024-02-28T04:25:17;96082.16;;;-1.87;100.00
49841;BME280;35738;49.890;5.930;2024-02-28T04:27:43;96088.06;;;-2.06;100.00
49841;BME280;35738;49.890;5.930;2024-02-28T04:30:10;96092.88;;;-2.03;100.00
49841;BME280;35738;49.890;5.930;2024-02-28T04:32:37;96086.31;;;-1.99;100.00
49841;BME280;35738;49.890;5.930;2024-02-28T04:35:04;96096.31;;;-1.83;100.00
49841;BME280;35738;49.890;5.930;2024-02-28T04:37:31;96103.72;;;-1.66;100.00
49841;BME280;35738;49.890;5.930;2024-02-28T04:39:58;96103.31;;;-1.63;100.00
49841;BME280;35738;49.890;5.930;2024-02-28T04:42:24;96103.69;;;-1.73;100.00
49841;BME280;35738;49.890;5.930;2024-02-28T04:44:51;96112.44;;;-1.80;100.00
49841;BME280;35738;49.890;5.930;2024-02-28T04:47:17;96106.84;;;-1.84;100.00
49841;BME280;35738;49.890;5.930;2024-02-28T04:49:52;96105.66;;;-1.81;100.00
49841;BME280;35738;49.890;5.930;2024-02-28T04:52:18;96104.06;;;-1.83;100.00
49841;BME280;35738;49.890;5.930;2024-02-28T04:54:49;96116.22;;;-1.76;100.00
49841;BME280;35738;49.890;5.930;2024-02-28T04:57:15;96111.63;;;-1.74;100.00
49841;BME280;35738;49.890;5.930;2024-02-28T04:59:43;96120.00;;;-1.72;100.00
49841;BME280;35738;49.890;5.930;2024-02-28T05:02:10;96116.41;;;-1.71;100.00
49841;BME280;35738;49.890;5.930;2024-02-28T05:04:37;96115.66;;;-1.65;100.00
49841;BME280;35738;49.890;5.930;2024-02-28T05:07:03;96118.84;;;-1.63;100.00
49841;BME280;35738;49.890;5.930;2024-02-28T05:09:30;96123.63;;;-1.67;100.00
49841;BME280;35738;49.890;5.930;2024-02-28T05:11:57;96132.53;;;-1.83;100.00
49841;BME280;35738;49.890;5.930;2024-02-28T05:14:25;96141.94;;;-2.16;100.00
49841;BME280;35738;49.890;5.930;2024-02-28T05:16:51;96141.44;;;-2.39;100.00
49841;BME280;35738;49.890;5.930;2024-02-28T05:19:18;96139.16;;;-2.56;100.00
49841;BME280;35738;49.890;5.930;2024-02-28T05:21:45;96142.84;;;-2.65;100.00
49841;BME280;35738;49.890;5.930;2024-02-28T05:24:12;96136.78;;;-2.51;100.00
49841;BME280;35738;49.890;5.930;2024-02-28T05:26:38;96139.09;;;-2.62;100.00
49841;BME280;35738;49.890;5.930;2024-02-28T05:29:05;96142.59;;;-2.77;100.00
49841;BME280;35738;49.890;5.930;2024-02-28T05:31:32;96142.59;;;-2.77;100.00
49841;BME280;35738;49.890;5.930;2024-02-28T05:34:00;96141.81;;;-2.77;100.00
49841;BME280;35738;49.890;5.930;2024-02-28T05:36:28;96150.59;;;-2.65;100.00
49841;BME280;35738;49.890;5.930;2024-02-28T05:38:56;96146.44;;;-2.66;100.00
49841;BME280;35738;49.890;5.930;2024-02-28T05:41:23;96145.38;;;-2.78;100.00
49841;BME280;35738;49.890;5.930;2024-02-28T05:43:50;96154.41;;;-2.61;100.00
49841;BME280;35738;49.890;5.930;2024-02-28T05:46:16;96151.34;;;-2.78;100.00
49841;BME280;35738;49.890;5.930;2024-02-28T05:48:44;96158.03;;;-2.83;100.00
49841;BME280;35738;49.890;5.930;2024-02-28T05:51:12;96157.81;;;-2.88;100.00
49841;BME280;35738;49.890;5.930;2024-02-28T05:53:40;96168.38;;;-2.83;100.00
49841;BME280;35738;49.890;5.930;2024-02-28T05:56:07;96161.97;;;-2.87;100.00
49841;BME280;35738;49.890;5.930;2024-02-28T05:58:41;96170.44;;;-2.72;100.00
49841;BME280;35738;49.890;5.930;2024-02-28T06:01:10;96163.31;;;-2.70;100.00
49841;BME280;35738;49.890;5.930;2024-02-28T06:03:37;96168.78;;;-2.80;100.00
49841;BME280;35738;49.890;5.930;2024-02-28T06:06:04;96183.66;;;-2.82;100.00
49841;BME280;35738;49.890;5.930;2024-02-28T06:08:37;96187.03;;;-2.81;100.00
49841;BME280;35738;49.890;5.930;2024-02-28T06:11:04;96186.94;;;-2.73;100.00
49841;BME280;35738;49.890;5.930;2024-02-28T06:13:31;96188.38;;;-2.64;100.00
49841;BME280;35738;49.890;5.930;2024-02-28T06:15:58;96181.09;;;-2.54;100.00
49841;BME280;35738;49.890;5.930;2024-02-28T06:18:26;96185.28;;;-2.53;100.00
49841;BME280;35738;49.890;5.930;2024-02-28T06:20:54;96188.31;;;-2.42;100.00
49841;BME280;35738;49.890;5.930;2024-02-28T06:23:22;96198.53;;;-2.34;100.00
49841;BME280;35738;49.890;5.930;2024-02-28T06:25:55;96199.69;;;-2.37;100.00
49841;BME280;35738;49.890;5.930;2024-02-28T06:28:22;96204.69;;;-2.35;100.00
49841;BME280;35738;49.890;5.930;2024-02-28T06:30:49;96207.53;;;-2.52;100.00
49841;BME280;35738;49.890;5.930;2024-02-28T06:33:15;96204.63;;;-2.70;100.00
49841;BME280;35738;49.890;5.930;2024-02-28T06:35:42;96206.50;;;-2.85;100.00
49841;BME280;35738;49.890;5.930;2024-02-28T06:38:09;96207.88;;;-3.11;100.00
49841;BME280;35738;49.890;5.930;2024-02-28T06:40:36;96211.72;;;-3.00;100.00
49841;BME280;35738;49.890;5.930;2024-02-28T06:43:03;96210.81;;;-2.92;100.00
49841;BME280;35738;49.890;5.930;2024-02-28T06:45:29;96216.19;;;-2.66;100.00
49841;BME280;35738;49.890;5.930;2024-02-28T06:47:56;96216.06;;;-2.79;100.00
49841;BME280;35738;49.890;5.930;2024-02-28T06:50:23;96214.06;;;-2.84;100.00
49841;BME280;35738;49.890;5.930;2024-02-28T06:52:50;96205.25;;;-2.68;100.00
49841;BME280;35738;49.890;5.930;2024-02-28T06:55:18;96206.66;;;-2.65;100.00
49841;BME280;35738;49.890;5.930;2024-02-28T06:57:44;96211.88;;;-2.59;100.00
49841;BME280;35738;49.890;5.930;2024-02-28T07:00:11;96214.97;;;-2.70;100.00
49841;BME280;35738;49.890;5.930;2024-02-28T07:02:39;96209.13;;;-2.51;100.00
49841;BME280;35738;49.890;5.930;2024-02-28T07:05:06;96215.34;;;-2.73;100.00
49841;BME280;35738;49.890;5.930;2024-02-28T07:07:33;96205.63;;;-2.71;100.00
49841;BME280;35738;49.890;5.930;2024-02-28T07:10:03;96207.94;;;-2.55;100.00
49841;BME280;35738;49.890;5.930;2024-02-28T07:12:31;96215.28;;;-2.52;100.00
49841;BME280;35738;49.890;5.930;2024-02-28T07:14:57;96209.91;;;-2.57;100.00
49841;BME280;35738;49.890;5.930;2024-02-28T07:17:24;96217.84;;;-2.58;100.00
49841;BME280;35738;49.890;5.930;2024-02-28T07:19:51;96221.91;;;-2.42;100.00
49841;BME280;35738;49.890;5.930;2024-02-28T07:22:17;96222.34;;;-2.39;100.00
49841;BME280;35738;49.890;5.930;2024-02-28T07:24:44;96225.34;;;-2.35;100.00
49841;BME280;35738;49.890;5.930;2024-02-28T07:27:11;96216.59;;;-2.34;100.00
49841;BME280;35738;49.890;5.930;2024-02-28T07:29:37;96227.56;;;-2.32;100.00
49841;BME280;35738;49.890;5.930;2024-02-28T07:32:04;96223.28;;;-2.19;100.00
49841;BME280;35738;49.890;5.930;2024-02-28T07:34:31;96213.56;;;-2.10;100.00
49841;BME280;35738;49.890;5.930;2024-02-28T07:36:58;96221.31;;;-2.10;100.00
49841;BME280;35738;49.890;5.930;2024-02-28T07:39:25;96220.13;;;-2.14;100.00
49841;BME280;35738;49.890;5.930;2024-02-28T07:41:52;96225.19;;;-2.27;100.00
49841;BME280;35738;49.890;5.930;2024-02-28T07:44:21;96221.84;;;-2.56;100.00
49841;BME280;35738;49.890;5.930;2024-02-28T07:46:48;96237.00;;;-2.74;100.00
49841;BME280;35738;49.890;5.930;2024-02-28T07:49:17;96229.50;;;-2.90;100.00
49841;BME280;35738;49.890;5.930;2024-02-28T07:51:43;96240.22;;;-2.93;100.00
49841;BME280;35738;49.890;5.930;2024-02-28T07:54:10;96242.00;;;-2.94;100.00
49841;BME280;35738;49.890;5.930;2024-02-28T07:56:36;96239.09;;;-2.84;100.00
49841;BME280;35738;49.890;5.930;2024-02-28T07:59:03;96242.28;;;-2.82;100.00
49841;BME280;35738;49.890;5.930;2024-02-28T08:01:30;96237.72;;;-2.59;100.00
49841;BME280;35738;49.890;5.930;2024-02-28T08:03:57;96240.16;;;-2.51;100.00
49841;BME280;35738;49.890;5.930;2024-02-28T08:06:24;96238.19;;;-2.49;100.00
49841;BME280;35738;49.890;5.930;2024-02-28T08:08:51;96237.25;;;-2.41;100.00
49841;BME280;35738;49.890;5.930;2024-02-28T08:11:17;96234.69;;;-2.34;100.00
49841;BME280;35738;49.890;5.930;2024-02-28T08:13:45;96245.06;;;-2.28;100.00
49841;BME280;35738;49.890;5.930;2024-02-28T08:16:12;96253.50;;;-2.19;100.00
49841;BME280;35738;49.890;5.930;2024-02-28T08:18:39;96259.19;;;-1.96;100.00
49841;BME280;35738;49.890;5.930;2024-02-28T08:21:06;96256.13;;;-1.71;100.00
49841;BME280;35738;49.890;5.930;2024-02-28T08:23:32;96248.81;;;-1.61;100.00
49841;BME280;35738;49.890;5.930;2024-02-28T08:25:59;96252.63;;;-1.57;100.00
49841;BME280;35738;49.890;5.930;2024-02-28T08:28:26;96258.19;;;-1.60;100.00
49841;BME280;35738;49.890;5.930;2024-02-28T08:30:53;96261.44;;;-1.45;100.00
49841;BME280;35738;49.890;5.930;2024-02-28T08:33:19;96257.13;;;-1.25;100.00
49841;BME280;35738;49.890;5.930;2024-02-28T08:35:50;96264.69;;;-1.23;100.00
49841;BME280;35738;49.890;5.930;2024-02-28T08:38:17;96269.13;;;-1.10;100.00
49841;BME280;35738;49.890;5.930;2024-02-28T08:40:44;96270.22;;;-1.33;100.00
49841;BME280;35738;49.890;5.930;2024-02-28T08:43:11;96275.09;;;-1.64;100.00
49841;BME280;35738;49.890;5.930;2024-02-28T08:45:38;96280.09;;;-1.56;100.00
49841;BME280;35738;49.890;5.930;2024-02-28T08:48:06;96272.91;;;-1.61;100.00
49841;BME280;35738;49.890;5.930;2024-02-28T08:50:32;96280.81;;;-1.75;100.00
49841;BME280;35738;49.890;5.930;2024-02-28T08:52:59;96278.47;;;-1.64;100.00
49841;BME280;35738;49.890;5.930;2024-02-28T08:55:25;96278.19;;;-1.41;100.00
49841;BME280;35738;49.890;5.930;2024-02-28T08:57:52;96278.50;;;-1.57;100.00
49841;BME280;35738;49.890;5.930;2024-02-28T09:00:19;96275.31;;;-1.59;100.00
49841;BME280;35738;49.890;5.930;2024-02-28T09:02:46;96279.69;;;-1.60;100.00
49841;BME280;35738;49.890;5.930;2024-02-28T09:05:12;96275.09;;;-1.64;100.00
49841;BME280;35738;49.890;5.930;2024-02-28T09:07:39;96280.19;;;-1.77;100.00
49841;BME280;35738;49.890;5.930;2024-02-28T09:10:06;96282.41;;;-1.74;100.00
49841;BME280;35738;49.890;5.930;2024-02-28T09:12:33;96287.19;;;-1.30;100.00
49841;BME280;35738;49.890;5.930;2024-02-28T09:15:00;96285.50;;;-0.90;100.00
49841;BME280;35738;49.890;5.930;2024-02-28T09:17:26;96290.91;;;-0.58;100.00
49841;BME280;35738;49.890;5.930;2024-02-28T09:19:53;96283.94;;;-0.38;100.00
49841;BME280;35738;49.890;5.930;2024-02-28T09:22:20;96291.13;;;-0.53;100.00
49841;BME280;35738;49.890;5.930;2024-02-28T09:24:48;96293.53;;;-0.52;100.00
49841;BME280;35738;49.890;5.930;2024-02-28T09:27:15;96300.69;;;-0.61;100.00
49841;BME280;35738;49.890;5.930;2024-02-28T09:29:42;96293.88;;;-0.81;100.00
49841;BME280;35738;49.890;5.930;2024-02-28T09:32:08;96301.06;;;-0.77;100.00
49841;BME280;35738;49.890;5.930;2024-02-28T09:34:37;96304.47;;;-0.56;100.00
49841;BME280;35738;49.890;5.930;2024-02-28T09:37:04;96316.69;;;-0.37;100.00
49841;BME280;35738;49.890;5.930;2024-02-28T09:39:30;96313.09;;;-0.36;100.00
49841;BME280;35738;49.890;5.930;2024-02-28T09:41:57;96314.66;;;-0.22;100.00
49841;BME280;35738;49.890;5.930;2024-02-28T09:44:24;96305.72;;;-0.33;100.00
49841;BME280;35738;49.890;5.930;2024-02-28T09:46:52;96309.50;;;-0.35;100.00
49841;BME280;35738;49.890;5.930;2024-02-28T09:49:19;96301.50;;;-0.27;100.00
49841;BME280;35738;49.890;5.930;2024-02-28T09:51:48;96303.09;;;0.01;100.00
49841;BME280;35738;49.890;5.930;2024-02-28T09:54:16;96309.06;;;0.14;100.00
49841;BME280;35738;49.890;5.930;2024-02-28T09:56:43;96308.59;;;0.37;100.00
49841;BME280;35738;49.890;5.930;2024-02-28T09:59:10;96317.97;;;0.58;100.00
49841;BME280;35738;49.890;5.930;2024-02-28T10:01:43;96319.69;;;0.71;100.00
49841;BME280;35738;49.890;5.930;2024-02-28T10:04:11;96319.28;;;0.74;100.00
49841;BME280;35738;49.890;5.930;2024-02-28T10:06:40;96317.69;;;0.73;100.00
49841;BME280;35738;49.890;5.930;2024-02-28T10:09:07;96314.88;;;0.81;100.00
49841;BME280;35738;49.890;5.930;2024-02-28T10:11:34;96311.69;;;0.79;100.00
49841;BME280;35738;49.890;5.930;2024-02-28T10:14:02;96314.22;;;0.92;100.00
49841;BME280;35738;49.890;5.930;2024-02-28T10:16:29;96319.88;;;1.20;100.00
49841;BME280;35738;49.890;5.930;2024-02-28T10:18:55;96313.44;;;1.86;100.00
49841;BME280;35738;49.890;5.930;2024-02-28T10:21:22;96315.38;;;2.16;99.51
49841;BME280;35738;49.890;5.930;2024-02-28T10:23:50;96311.00;;;2.34;98.99
49841;BME280;35738;49.890;5.930;2024-02-28T10:26:17;96306.00;;;2.51;98.21
49841;BME280;35738;49.890;5.930;2024-02-28T10:28:44;96309.50;;;2.45;96.70
49841;BME280;35738;49.890;5.930;2024-02-28T10:31:12;96305.34;;;2.56;96.81
49841;BME280;35738;49.890;5.930;2024-02-28T10:33:41;96310.50;;;2.81;95.35
49841;BME280;35738;49.890;5.930;2024-02-28T10:36:07;96313.84;;;3.18;94.23
49841;BME280;35738;49.890;5.930;2024-02-28T10:38:35;96310.75;;;3.39;94.63
49841;BME280;35738;49.890;5.930;2024-02-28T10:41:05;96313.25;;;3.46;93.31
49841;BME280;35738;49.890;5.930;2024-02-28T10:43:35;96311.94;;;3.25;91.60
49841;BME280;35738;49.890;5.930;2024-02-28T10:46:02;96318.91;;;3.13;92.20
49841;BME280;35738;49.890;5.930;2024-02-28T10:48:50;96318.63;;;3.21;91.17
49841;BME280;35738;49.890;5.930;2024-02-28T10:51:23;96315.47;;;3.30;89.52
49841;BME280;35738;49.890;5.930;2024-02-28T10:54:08;96319.31;;;3.58;88.12
49841;BME280;35738;49.890;5.930;2024-02-28T10:56:42;96320.91;;;3.71;86.53
49841;BME280;35738;49.890;5.930;2024-02-28T10:59:10;96317.28;;;3.72;84.14
49841;BME280;35738;49.890;5.930;2024-02-28T11:01:42;96315.97;;;3.51;82.56
49841;BME280;35738;49.890;5.930;2024-02-28T11:04:15;96313.16;;;3.52;80.46
49841;BME280;35738;49.890;5.930;2024-02-28T11:06:49;96310.69;;;3.57;80.86
49841;BME280;35738;49.890;5.930;2024-02-28T11:09:22;96311.94;;;3.67;79.94
49841;BME280;35738;49.890;5.930;2024-02-28T11:11:49;96308.22;;;3.86;78.06
49841;BME280;35738;49.890;5.930;2024-02-28T11:14:19;96304.84;;;4.20;77.88
49841;BME280;35738;49.890;5.930;2024-02-28T11:17:04;96305.72;;;4.61;78.19
49841;BME280;35738;49.890;5.930;2024-02-28T11:19:32;96294.78;;;4.88;76.48
49841;BME280;35738;49.890;5.930;2024-02-28T11:22:02;96290.19;;;4.95;74.82
49841;BME280;35738;49.890;5.930;2024-02-28T11:24:32;96294.38;;;4.67;75.57
49841;BME280;35738;49.890;5.930;2024-02-28T11:26:59;96299.84;;;4.54;76.98
49841;BME280;35738;49.890;5.930;2024-02-28T11:29:28;96297.22;;;4.42;77.71
49841;BME280;35738;49.890;5.930;2024-02-28T11:31:57;96292.78;;;4.54;78.40
49841;BME280;35738;49.890;5.930;2024-02-28T11:34:24;96292.31;;;4.69;79.23
49841;BME280;35738;49.890;5.930;2024-02-28T11:36:51;96292.66;;;5.01;78.10
49841;BME280;35738;49.890;5.930;2024-02-28T11:39:19;96292.28;;;5.38;77.41
49841;BME280;35738;49.890;5.930;2024-02-28T11:41:47;96289.81;;;5.60;76.78
49841;BME280;35738;49.890;5.930;2024-02-28T11:44:16;96295.72;;;5.55;75.41
49841;BME280;35738;49.890;5.930;2024-02-28T11:46:47;96291.44;;;5.49;75.53
49841;BME280;35738;49.890;5.930;2024-02-28T11:49:14;96291.25;;;5.22;77.20
49841;BME280;35738;49.890;5.930;2024-02-28T11:51:44;96285.09;;;5.45;72.44
49841;BME280;35738;49.890;5.930;2024-02-28T11:54:11;96286.84;;;5.56;69.65
49841;BME280;35738;49.890;5.930;2024-02-28T11:56:38;96284.56;;;5.60;69.87
49841;BME280;35738;49.890;5.930;2024-02-28T11:59:05;96282.56;;;5.67;68.84
49841;BME280;35738;49.890;5.930;2024-02-28T12:01:37;96286.72;;;5.80;67.45
49841;BME280;35738;49.890;5.930;2024-02-28T12:04:04;96278.06;;;5.79;64.59
49841;BME280;35738;49.890;5.930;2024-02-28T12:06:36;96279.00;;;5.73;64.58
49841;BME280;35738;49.890;5.930;2024-02-28T12:09:06;96284.50;;;6.05;63.06
49841;BME280;35738;49.890;5.930;2024-02-28T12:11:36;96275.47;;;5.96;61.36
49841;BME280;35738;49.890;5.930;2024-02-28T12:14:03;96267.81;;;6.28;59.82
49841;BME280;35738;49.890;5.930;2024-02-28T12:16:31;96262.00;;;6.64;61.98
49841;BME280;35738;49.890;5.930;2024-02-28T12:18:58;96257.41;;;6.77;57.70
49841;BME280;35738;49.890;5.930;2024-02-28T12:21:25;96255.41;;;6.84;58.42
49841;BME280;35738;49.890;5.930;2024-02-28T12:23:51;96258.69;;;6.96;57.52
49841;BME280;35738;49.890;5.930;2024-02-28T12:26:18;96262.16;;;7.02;53.19
49841;BME280;35738;49.890;5.930;2024-02-28T12:28:46;96256.41;;;7.05;54.96
49841;BME280;35738;49.890;5.930;2024-02-28T12:31:13;96248.53;;;7.26;52.18
49841;BME280;35738;49.890;5.930;2024-02-28T12:33:40;96242.78;;;7.29;48.32
49841;BME280;35738;49.890;5.930;2024-02-28T12:36:07;96248.59;;;7.37;49.98
49841;BME280;35738;49.890;5.930;2024-02-28T12:38:34;96246.31;;;7.18;51.84
49841;BME280;35738;49.890;5.930;2024-02-28T12:41:01;96234.03;;;7.24;47.40
49841;BME280;35738;49.890;5.930;2024-02-28T12:43:29;96245.69;;;7.33;48.70
49841;BME280;35738;49.890;5.930;2024-02-28T12:45:56;96239.09;;;7.31;48.78
49841;BME280;35738;49.890;5.930;2024-02-28T12:48:23;96231.56;;;7.39;50.18
49841;BME280;35738;49.890;5.930;2024-02-28T12:50:49;96232.66;;;7.16;50.09
49841;BME280;35738;49.890;5.930;2024-02-28T12:53:16;96231.94;;;6.99;55.27
49841;BME280;35738;49.890;5.930;2024-02-28T12:55:42;96232.53;;;7.06;64.78